Time;durP1;ratioP1;P1;durP2;ratioP2;P2;SDS_P1;SDS_P2;PMS_P1;PMS_P2;Temp;Humidity;BMP_temperature;BMP_pressure;BME280_temperature;BME280_humidity;BME280_pressure;Samples;Min_cycle;Max_cycle;Signal;HPM_P1;HPM_P2
2021/12/05 00:17:54;;;;;;;15.25;3.55;;;6.10;97.90;;;;;;5065434;28;20075;-78
2021/12/05 00:23:00;;;;;;;13.95;3.10;;;6.10;97.90;;;;;;5061442;28;20092;-76
2021/12/05 00:25:29;;;;;;;15.75;3.28;;;6.20;97.90;;;;;;5071938;28;20024;-76
2021/12/05 00:44:58;;;;;;;13.45;3.00;;;6.20;97.60;;;;;;5064896;28;20020;-76
2021/12/05 01:00:06;;;;;;;13.15;2.60;;;6.00;97.60;;;;;;5064020;28;20120;-76
2021/12/05 01:05:29;;;;;;;16.05;2.75;;;6.00;97.40;;;;;;5076924;28;20028;-76
2021/12/05 01:15:27;;;;;;;16.02;2.97;;;5.90;97.30;;;;;;5076704;28;20020;-76
2021/12/05 01:18:29;;;;;;;15.00;2.38;;;5.90;97.40;;;;;;5086655;28;20082;-76
2021/12/05 01:20:56;;;;;;;11.07;2.20;;;5.90;97.40;;;;;;5078886;28;20404;-76
2021/12/05 01:23:34;;;;;;;19.63;2.83;;;5.80;97.20;;;;;;5084305;28;20032;-75
2021/12/05 01:26:07;;;;;;;14.75;2.90;;;5.90;97.20;;;;;;5087082;28;20028;-76
2021/12/05 01:33:44;;;;;;;15.23;2.38;;;5.80;97.20;;;;;;5099319;28;20538;-76
2021/12/05 01:51:44;;;;;;;14.23;2.50;;;5.80;97.00;;;;;;5088925;28;20497;-76
2021/12/05 02:15:59;;;;;;;17.02;2.38;;;5.70;97.30;;;;;;5087105;28;20031;-75
2021/12/05 02:45:25;;;;;;;19.45;2.70;;;5.60;97.60;;;;;;5073743;28;20029;-75
2021/12/05 02:47:53;;;;;;;15.82;3.40;;;5.60;97.30;;;;;;5080924;28;20128;-75
2021/12/05 02:50:22;;;;;;;21.77;3.17;;;5.60;97.30;;;;;;5088390;28;20031;-75
2021/12/05 02:52:48;;;;;;;10.57;2.08;;;5.60;97.40;;;;;;5080076;28;20029;-75
2021/12/05 02:55:29;;;;;;;17.48;3.55;;;5.60;97.40;;;;;;5082944;28;20035;-75
2021/12/05 02:58:13;;;;;;;17.45;3.03;;;5.60;97.20;;;;;;5084343;28;20062;-75
2021/12/05 03:00:44;;;;;;;15.05;2.92;;;5.60;97.30;;;;;;5085371;28;20040;-75
2021/12/05 03:03:22;;;;;;;13.70;3.17;;;5.60;97.10;;;;;;5072425;28;20059;-75
2021/12/05 03:05:59;;;;;;;15.43;3.13;;;5.60;97.10;;;;;;5070253;28;20028;-75
2021/12/05 03:08:25;;;;;;;18.95;2.65;;;5.50;97.20;;;;;;5071822;28;20108;-75
2021/12/05 03:10:52;;;;;;;19.25;3.47;;;5.50;97.30;;;;;;5071636;28;20027;-75
2021/12/05 03:13:18;;;;;;;17.17;3.33;;;5.60;97.50;;;;;;5070796;28;20059;-75
2021/12/05 03:15:44;;;;;;;19.17;3.10;;;5.50;97.50;;;;;;5074955;28;20055;-75
2021/12/05 03:18:09;;;;;;;16.17;2.97;;;5.60;97.60;;;;;;5077228;28;20025;-75
2021/12/05 03:20:36;;;;;;;20.95;3.35;;;5.60;97.60;;;;;;5084773;28;20038;-75
2021/12/05 03:23:02;;;;;;;18.25;3.67;;;5.50;97.50;;;;;;5078336;28;20032;-75
2021/12/05 03:25:28;;;;;;;15.23;2.80;;;5.50;97.90;;;;;;5078418;28;20076;-74
2021/12/05 03:27:54;;;;;;;12.45;2.60;;;5.50;97.60;;;;;;5101708;28;20470;-75
2021/12/05 03:30:23;;;;;;;18.70;3.88;;;5.40;97.80;;;;;;5081471;28;20150;-76
2021/12/05 03:32:50;;;;;;;16.95;2.85;;;5.40;97.80;;;;;;5071642;28;20032;-76
2021/12/05 03:35:19;;;;;;;12.55;3.17;;;5.50;97.80;;;;;;5067733;28;20539;-76
2021/12/05 03:37:47;;;;;;;17.35;3.60;;;5.50;97.80;;;;;;5068558;28;20035;-76
2021/12/05 03:40:14;;;;;;;17.85;2.97;;;5.50;97.60;;;;;;5071007;28;20048;-76
2021/12/05 03:42:40;;;;;;;18.42;2.72;;;5.50;97.70;;;;;;5070871;28;20024;-76
2021/12/05 03:45:10;;;;;;;21.65;2.90;;;5.60;97.60;;;;;;5071041;28;20116;-76
2021/12/05 03:47:36;;;;;;;17.85;2.40;;;5.60;97.60;;;;;;5068869;28;20028;-76
2021/12/05 03:50:07;;;;;;;14.23;2.83;;;5.70;97.50;;;;;;5070814;28;20079;-76
2021/12/05 03:52:33;;;;;;;10.77;2.55;;;5.70;97.50;;;;;;5071429;28;20356;-76
2021/12/05 03:54:59;;;;;;;15.32;2.95;;;5.70;97.40;;;;;;5071103;28;20078;-76
2021/12/05 03:57:25;;;;;;;15.05;2.80;;;5.60;97.50;;;;;;5071122;28;20506;-76
2021/12/05 03:59:50;;;;;;;17.33;3.38;;;5.60;97.60;;;;;;5071510;28;20064;-76
2021/12/05 04:02:16;;;;;;;14.77;2.50;;;5.60;97.60;;;;;;5086392;28;20109;-76
2021/12/05 04:04:42;;;;;;;15.23;2.90;;;5.60;97.60;;;;;;5080445;28;20036;-76
2021/12/05 04:07:08;;;;;;;14.85;2.63;;;5.70;97.70;;;;;;5081606;28;20083;-76
2021/12/05 04:09:35;;;;;;;25.02;2.70;;;5.70;97.70;;;;;;5090045;28;20028;-75
2021/12/05 04:12:03;;;;;;;18.33;3.08;;;5.60;97.50;;;;;;5083877;28;20474;-76
2021/12/05 04:14:35;;;;;;;16.75;2.92;;;5.60;97.60;;;;;;5092166;28;20058;-76
2021/12/05 04:17:03;;;;;;;11.05;2.67;;;5.70;97.50;;;;;;5079704;28;20029;-76
2021/12/05 04:19:29;;;;;;;15.10;2.88;;;5.70;97.50;;;;;;5084588;28;20503;-76
2021/12/05 04:21:55;;;;;;;10.35;2.42;;;5.60;97.90;;;;;;5090550;28;20024;-76
2021/12/05 04:24:22;;;;;;;14.40;3.08;;;5.60;97.70;;;;;;5085275;28;20078;-75
2021/12/05 04:26:49;;;;;;;11.93;3.03;;;5.60;97.80;;;;;;5091562;28;20084;-76
2021/12/05 04:29:14;;;;;;;10.75;3.33;;;5.60;97.90;;;;;;5092708;28;20021;-76
2021/12/05 04:31:41;;;;;;;11.35;3.60;;;5.60;98.10;;;;;;5087246;28;20035;-76
2021/12/05 04:34:07;;;;;;;18.20;3.58;;;5.60;98.20;;;;;;5086463;28;20063;-76
2021/12/05 04:36:33;;;;;;;15.38;2.95;;;5.70;98.00;;;;;;5083444;28;20036;-76
2021/12/05 04:38:59;;;;;;;10.68;2.90;;;5.70;97.90;;;;;;5084224;28;20035;-76
2021/12/05 04:41:25;;;;;;;16.60;3.67;;;5.70;97.80;;;;;;5079860;28;20379;-76
2021/12/05 04:43:52;;;;;;;11.95;3.47;;;5.80;97.70;;;;;;5077705;28;20021;-76
2021/12/05 04:46:21;;;;;;;17.63;3.20;;;5.80;97.70;;;;;;5083129;28;20031;-76
2021/12/05 04:48:50;;;;;;;12.63;3.42;;;5.70;97.60;;;;;;5079670;28;20439;-75
2021/12/05 04:51:18;;;;;;;12.45;2.80;;;5.70;97.60;;;;;;5086155;28;20031;-75
2021/12/05 04:53:43;;;;;;;10.57;2.90;;;5.70;97.70;;;;;;5086728;28;20059;-75
2021/12/05 04:56:09;;;;;;;17.23;3.35;;;5.70;97.90;;;;;;5077740;28;20060;-75
2021/12/05 04:58:36;;;;;;;14.75;2.95;;;5.70;97.90;;;;;;5085095;28;20099;-75
2021/12/05 05:01:02;;;;;;;10.80;3.20;;;5.70;98.00;;;;;;5087209;28;20044;-77
2021/12/05 05:03:28;;;;;;;12.52;3.20;;;5.70;97.90;;;;;;5074243;28;20033;-77
2021/12/05 05:06:04;;;;;;;11.18;3.10;;;5.70;98.00;;;;;;5073794;28;20574;-75
2021/12/05 05:08:31;;;;;;;10.25;2.67;;;5.80;98.00;;;;;;5073720;28;20081;-75
2021/12/05 05:10:59;;;;;;;7.65;2.63;;;5.70;97.90;;;;;;5072720;28;20028;-75
2021/12/05 05:13:26;;;;;;;14.27;3.38;;;5.80;97.80;;;;;;5073050;28;20028;-76
2021/12/05 05:15:53;;;;;;;11.93;2.90;;;5.80;97.90;;;;;;5073462;28;20029;-76
2021/12/05 05:18:19;;;;;;;14.23;2.75;;;5.80;97.90;;;;;;5073056;28;20468;-76
2021/12/05 05:20:59;;;;;;;15.70;3.42;;;5.80;97.90;;;;;;5073809;28;20035;-76
2021/12/05 05:23:40;;;;;;;11.18;2.75;;;5.80;98.00;;;;;;5074785;28;20067;-77
2021/12/05 05:48:16;;;;;;;11.52;3.67;;;5.90;98.10;;;;;;5073053;28;20017;-77
2021/12/05 05:50:18;;;;;;;9.23;3.10;;;5.90;98.10;;;;;;5068349;28;20033;-84
2021/12/05 05:52:44;;;;;;;6.22;3.15;;;5.90;97.80;;;;;;5072826;28;20463;-79
2021/12/05 05:55:12;;;;;;;11.38;3.22;;;6.00;97.90;;;;;;5072621;28;20039;-79
2021/12/05 06:00:38;;;;;;;8.20;3.45;;;5.90;97.90;;;;;;5073318;28;20060;-79
2021/12/05 06:03:21;;;;;;;8.23;3.00;;;5.90;97.90;;;;;;5081775;28;20051;-79
2021/12/05 06:05:59;;;;;;;8.95;3.03;;;5.90;98.00;;;;;;5092674;28;20035;-79
2021/12/05 06:08:28;;;;;;;5.63;2.58;;;5.90;97.80;;;;;;5073986;28;20032;-79
2021/12/05 06:10:58;;;;;;;10.00;3.65;;;5.90;97.80;;;;;;5081327;28;20064;-79
2021/12/05 06:13:24;;;;;;;9.27;2.90;;;5.90;98.00;;;;;;5081060;28;20082;-79
2021/12/05 06:15:51;;;;;;;6.70;2.60;;;5.90;98.00;;;;;;5075659;28;20028;-79
2021/12/05 06:18:17;;;;;;;10.05;2.55;;;5.90;97.90;;;;;;5083090;28;20098;-78
2021/12/05 06:20:44;;;;;;;7.70;3.00;;;5.90;97.90;;;;;;5085449;28;20048;-77
2021/12/05 06:23:11;;;;;;;12.32;2.60;;;6.00;98.00;;;;;;5093994;28;20016;-77
2021/12/05 06:25:39;;;;;;;11.93;2.92;;;5.90;98.10;;;;;;5104088;28;20224;-77
2021/12/05 06:28:11;;;;;;;10.73;2.30;;;5.90;98.00;;;;;;5084956;28;20025;-77
2021/12/05 06:30:49;;;;;;;9.55;2.92;;;5.90;98.00;;;;;;5083689;28;20032;-77
2021/12/05 06:46:23;;;;;;;5.63;2.50;;;6.10;98.10;;;;;;5082117;28;20027;-76
2021/12/05 06:48:49;;;;;;;7.45;2.50;;;6.10;98.30;;;;;;5081585;28;20027;-75
2021/12/05 06:51:23;;;;;;;8.90;2.70;;;6.20;98.30;;;;;;5085825;28;20033;-75
2021/12/05 06:53:49;;;;;;;10.52;2.53;;;6.20;98.40;;;;;;5084145;28;20032;-75
2021/12/05 06:56:15;;;;;;;7.18;2.63;;;6.20;98.10;;;;;;5084095;28;20020;-75
2021/12/05 06:58:41;;;;;;;10.45;2.80;;;6.20;98.10;;;;;;5085482;28;20488;-74
2021/12/05 07:01:09;;;;;;;8.35;2.50;;;6.20;98.10;;;;;;5082006;28;20040;-75
2021/12/05 07:03:39;;;;;;;7.32;2.40;;;6.20;98.10;;;;;;5071492;28;20027;-75
2021/12/05 07:06:09;;;;;;;7.35;2.60;;;6.30;98.20;;;;;;5069724;28;20388;-75
2021/12/05 07:08:38;;;;;;;8.50;2.58;;;6.30;98.00;;;;;;5071955;28;20044;-75
2021/12/05 07:24:29;;;;;;;8.35;2.50;;;6.50;97.70;;;;;;5074808;28;20108;-77
2021/12/05 07:42:46;;;;;;;6.70;1.98;;;6.70;96.80;;;;;;5069544;28;20029;-81
2021/12/05 07:45:19;;;;;;;4.43;2.22;;;6.70;96.90;;;;;;5069601;28;20042;-80
2021/12/05 07:47:49;;;;;;;;;;;6.70;96.90;;;;;;5070028;28;20410;-82
2021/12/05 07:50:16;;;;;;;3.17;2.20;;;6.60;96.80;;;;;;5070092;28;19996;-80
2021/12/05 07:52:46;;;;;;;3.55;1.63;;;6.50;96.90;;;;;;5069134;28;20138;-77
2021/12/05 07:55:19;;;;;;;5.05;2.00;;;6.50;96.90;;;;;;5069994;28;20116;-78
2021/12/05 08:00:47;;;;;;;3.13;1.65;;;6.40;96.80;;;;;;5069642;28;20040;-78
2021/12/05 08:14:27;;;;;;;1.73;1.38;;;6.20;96.90;;;;;;5086223;28;20062;-76
2021/12/05 08:16:54;;;;;;;2.65;1.55;;;6.20;96.90;;;;;;5071028;28;20033;-75
2021/12/05 08:19:20;;;;;;;3.28;1.48;;;6.30;96.90;;;;;;5078838;28;20039;-75
2021/12/05 08:21:50;;;;;;;4.13;2.08;;;6.30;97.00;;;;;;5076046;28;20028;-75
2021/12/05 08:24:16;;;;;;;3.63;1.95;;;6.30;97.10;;;;;;5085030;28;20028;-77
2021/12/05 08:26:43;;;;;;;2.72;2.10;;;6.30;97.00;;;;;;5082448;28;20078;-76
2021/12/05 08:29:14;;;;;;;3.00;2.15;;;6.40;97.00;;;;;;5081810;28;20039;-76
2021/12/05 10:34:57;;;;;;;4.38;3.40;;;7.30;96.90;;;;;;5049868;28;20044;-75
2021/12/05 10:37:25;;;;;;;4.15;3.70;;;7.20;96.80;;;;;;5051935;28;20057;-75
2021/12/05 10:40:09;;;;;;;3.63;3.33;;;7.10;97.00;;;;;;5052197;28;20108;-75
2021/12/05 10:42:45;;;;;;;6.28;3.45;;;7.20;97.10;;;;;;5051138;28;20040;-75
2021/12/05 10:45:19;;;;;;;3.53;3.22;;;7.20;97.10;;;;;;5051706;28;20083;-75
2021/12/05 10:47:48;;;;;;;6.65;3.20;;;7.20;96.90;;;;;;5051747;28;20055;-75
2021/12/05 10:50:36;;;;;;;5.05;2.90;;;7.20;97.00;;;;;;5051574;28;20088;-75
2021/12/05 10:53:18;;;;;;;4.13;3.45;;;7.20;97.10;;;;;;5050314;28;20510;-75
2021/12/05 10:55:45;;;;;;;5.72;3.40;;;7.20;97.00;;;;;;5051194;28;20476;-75
2021/12/05 10:58:11;;;;;;;4.80;3.40;;;7.20;96.90;;;;;;5052231;28;20146;-75
2021/12/05 11:00:36;;;;;;;7.15;3.95;;;7.30;97.00;;;;;;5051367;28;20568;-75
2021/12/05 11:03:18;;;;;;;6.10;3.28;;;7.20;96.90;;;;;;5068012;28;20043;-75
2021/12/05 11:05:44;;;;;;;3.50;2.97;;;7.20;96.90;;;;;;5071774;28;20040;-75
2021/12/05 11:08:33;;;;;;;5.85;3.97;;;7.30;97.10;;;;;;5070653;28;20028;-74
2021/12/05 11:11:14;;;;;;;5.50;4.20;;;7.30;97.00;;;;;;5069809;28;20035;-74
2021/12/05 11:13:45;;;;;;;5.90;3.90;;;7.30;97.00;;;;;;5070375;28;20360;-73
2021/12/05 11:16:35;;;;;;;5.25;3.40;;;7.30;97.10;;;;;;5079016;28;20037;-75
2021/12/05 11:19:07;;;;;;;4.97;3.95;;;7.30;97.00;;;;;;5071098;28;20036;-73
2021/12/05 11:21:34;;;;;;;5.70;3.85;;;7.40;97.00;;;;;;5070944;28;20530;-75
2021/12/05 11:24:07;;;;;;;4.38;3.97;;;7.40;96.80;;;;;;5071261;28;20471;-78
2021/12/05 11:26:34;;;;;;;6.07;4.03;;;7.40;96.60;;;;;;5070755;28;20437;-73
2021/12/05 11:29:01;;;;;;;5.40;4.25;;;7.40;96.60;;;;;;5071484;28;20036;-75
2021/12/05 11:31:31;;;;;;;5.57;3.83;;;7.40;96.60;;;;;;5070832;28;20107;-74
2021/12/05 11:33:57;;;;;;;4.70;4.30;;;7.40;96.70;;;;;;5071127;28;20032;-75
2021/12/05 11:36:28;;;;;;;4.78;3.83;;;7.40;96.80;;;;;;5071541;28;20032;-75
2021/12/05 11:38:54;;;;;;;5.50;4.65;;;7.50;96.80;;;;;;5071245;28;20056;-76
2021/12/05 11:41:23;;;;;;;3.70;3.38;;;7.50;96.70;;;;;;5071561;28;20074;-75
2021/12/05 11:43:54;;;;;;;6.90;3.60;;;7.60;96.70;;;;;;5070998;28;20027;-75
2021/12/05 11:46:35;;;;;;;5.53;3.65;;;7.60;96.50;;;;;;5068984;28;20032;-75
2021/12/05 11:49:06;;;;;;;6.93;4.00;;;7.70;96.50;;;;;;5068816;28;20024;-74
2021/12/05 11:51:44;;;;;;;4.30;3.50;;;7.70;96.50;;;;;;5067770;28;20391;-74
2021/12/05 11:54:27;;;;;;;6.15;3.90;;;7.70;96.40;;;;;;5067352;28;20151;-75
2021/12/05 11:57:06;;;;;;;4.03;3.55;;;7.80;96.40;;;;;;5067071;28;20388;-75
2021/12/05 11:59:35;;;;;;;4.90;4.00;;;7.80;96.00;;;;;;5068315;28;20056;-75
2021/12/05 12:02:13;;;;;;;3.95;3.60;;;7.80;95.90;;;;;;5076698;28;20056;-75
2021/12/05 12:05:05;;;;;;;4.32;3.90;;;7.80;96.00;;;;;;5078331;28;20104;-75
2021/12/05 12:07:43;;;;;;;4.15;3.20;;;7.80;96.10;;;;;;5076942;28;20028;-77
2021/12/05 12:10:11;;;;;;;5.18;4.68;;;7.80;96.00;;;;;;5084772;28;20056;-75
2021/12/05 12:12:39;;;;;;;4.30;3.90;;;7.80;96.00;;;;;;5102179;28;20117;-75
2021/12/05 12:15:07;;;;;;;5.88;4.13;;;7.70;95.80;;;;;;5077442;28;20036;-77
2021/12/05 12:17:32;;;;;;;7.63;4.63;;;7.70;95.90;;;;;;5083043;28;20035;-77
2021/12/05 12:19:58;;;;;;;7.18;4.75;;;7.70;96.00;;;;;;5072817;28;20375;-77
2021/12/05 12:22:27;;;;;;;4.40;4.00;;;7.70;96.00;;;;;;5077893;28;20028;-77
2021/12/05 12:25:02;;;;;;;4.30;3.88;;;7.70;96.10;;;;;;5092693;28;20479;-78
2021/12/05 12:27:28;;;;;;;5.47;3.92;;;7.70;96.20;;;;;;5080851;28;20032;-78
2021/12/05 12:29:59;;;;;;;4.63;3.70;;;7.80;96.20;;;;;;5085126;28;20402;-78
2021/12/05 12:32:30;;;;;;;4.47;4.07;;;7.90;96.40;;;;;;5080540;28;20028;-79
2021/12/05 12:35:08;;;;;;;6.28;3.80;;;7.80;96.00;;;;;;5089722;28;20035;-77
2021/12/05 12:37:55;;;;;;;3.97;3.63;;;7.90;96.00;;;;;;5091692;28;20043;-77
2021/12/05 12:40:46;;;;;;;4.43;3.50;;;8.00;96.00;;;;;;5076430;28;20036;-79
2021/12/05 12:43:40;;;;;;;5.00;3.95;;;8.00;95.90;;;;;;5081338;28;20024;-78
2021/12/05 12:46:25;;;;;;;4.45;4.05;;;8.00;95.80;;;;;;5085202;28;20025;-78
2021/12/05 12:48:59;;;;;;;4.97;3.72;;;8.00;95.70;;;;;;5078008;28;20502;-78
2021/12/05 12:51:33;;;;;;;4.88;4.13;;;8.10;95.70;;;;;;5083362;28;20066;-80
2021/12/05 12:54:03;;;;;;;5.72;3.50;;;8.10;95.70;;;;;;5086511;28;20028;-77
2021/12/05 12:56:30;;;;;;;4.82;4.20;;;8.00;95.60;;;;;;5093472;28;20020;-78
2021/12/05 12:59:06;;;;;;;5.22;3.42;;;8.10;95.80;;;;;;5085414;28;20032;-77
2021/12/05 13:10:16;;;;;;;5.10;3.90;;;8.00;95.70;;;;;;5089968;28;20021;-78
2021/12/05 13:12:41;;;;;;;5.15;3.78;;;8.00;95.60;;;;;;5090853;28;20028;-78
2021/12/05 13:15:26;;;;;;;4.35;3.53;;;8.00;95.60;;;;;;5075276;28;20111;-77
2021/12/05 13:18:13;;;;;;;3.20;3.00;;;8.00;95.70;;;;;;5072250;28;20020;-77
2021/12/05 13:20:42;;;;;;;3.30;2.90;;;8.00;95.50;;;;;;5060142;28;20059;-77
2021/12/05 13:23:11;;;;;;;2.80;2.60;;;8.00;95.40;;;;;;5074489;28;20024;-77
2021/12/05 13:26:02;;;;;;;3.28;2.55;;;7.90;95.40;;;;;;5074973;28;20029;-77
2021/12/05 13:28:32;;;;;;;3.15;2.67;;;7.90;95.40;;;;;;5074682;28;20016;-76
2021/12/05 13:31:00;;;;;;;3.05;2.63;;;7.90;95.30;;;;;;5073038;28;20040;-77
2021/12/05 13:33:31;;;;;;;2.85;2.55;;;7.90;95.20;;;;;;5080756;28;20028;-76
2021/12/05 13:35:58;;;;;;;3.60;2.72;;;7.90;95.20;;;;;;5081049;28;20027;-77
2021/12/05 13:38:41;;;;;;;2.85;2.15;;;7.90;95.10;;;;;;5076373;28;20032;-78
2021/12/05 13:41:19;;;;;;;3.38;2.38;;;8.00;95.10;;;;;;5076378;28;20032;-76
2021/12/05 13:44:01;;;;;;;4.25;2.78;;;8.00;95.00;;;;;;5078093;28;20036;-77
2021/12/05 13:46:39;;;;;;;3.75;2.78;;;8.00;95.00;;;;;;5074899;28;20043;-75
2021/12/05 13:49:33;;;;;;;3.45;2.85;;;8.00;94.90;;;;;;5075230;28;20029;-76
2021/12/05 13:52:28;;;;;;;3.45;3.10;;;8.10;94.90;;;;;;5068984;28;20060;-77
2021/12/05 13:55:14;;;;;;;3.90;3.15;;;8.10;94.80;;;;;;5077275;28;20483;-76
2021/12/05 13:58:18;;;;;;;3.97;3.03;;;8.10;94.70;;;;;;5072085;28;20462;-78
2021/12/05 14:00:43;;;;;;;4.43;2.30;;;8.10;94.70;;;;;;5074070;28;20044;-78
2021/12/05 14:03:09;;;;;;;3.28;2.75;;;8.10;94.50;;;;;;5075202;28;20040;-74
2021/12/05 14:05:35;;;;;;;2.17;1.98;;;8.10;94.60;;;;;;5084491;28;20056;-76
2021/12/05 14:08:02;;;;;;;2.85;2.28;;;8.10;94.60;;;;;;5083303;28;20123;-77
2021/12/05 14:10:43;;;;;;;2.75;2.45;;;8.10;94.50;;;;;;5075520;28;20025;-75
2021/12/05 14:13:10;;;;;;;3.70;2.28;;;8.20;94.50;;;;;;5072579;28;20078;-77
2021/12/05 14:15:35;;;;;;;3.00;2.10;;;8.20;94.60;;;;;;5073528;28;20031;-76
2021/12/05 14:18:01;;;;;;;3.13;2.58;;;8.20;94.50;;;;;;5072869;28;20025;-75
2021/12/05 14:20:28;;;;;;;4.32;2.40;;;8.10;94.40;;;;;;5083957;28;20036;-74
2021/12/05 14:22:54;;;;;;;3.35;2.55;;;8.10;94.50;;;;;;5090009;28;20028;-75
2021/12/05 14:25:23;;;;;;;3.55;2.92;;;8.10;94.60;;;;;;5080690;28;20067;-75
2021/12/05 14:27:55;;;;;;;3.25;2.90;;;8.10;94.40;;;;;;5088700;28;20104;-76
2021/12/05 14:30:23;;;;;;;2.90;2.53;;;8.10;94.40;;;;;;5074612;28;20027;-75
2021/12/05 14:32:53;;;;;;;4.07;2.50;;;8.00;94.40;;;;;;5088304;28;20024;-74
2021/12/05 14:35:29;;;;;;;4.63;3.17;;;8.00;94.50;;;;;;5075140;28;20028;-75
2021/12/05 14:37:56;;;;;;;4.03;2.97;;;8.00;94.50;;;;;;5079954;28;20024;-76
2021/12/05 14:40:30;;;;;;;3.10;2.80;;;8.00;94.50;;;;;;5077541;28;20040;-76
2021/12/05 14:42:59;;;;;;;4.10;3.70;;;8.00;94.70;;;;;;5080863;28;20509;-75
2021/12/05 14:45:27;;;;;;;3.10;2.70;;;8.00;94.60;;;;;;5074348;28;20107;-76
2021/12/05 14:47:56;;;;;;;4.47;3.03;;;8.10;94.50;;;;;;5085866;28;20044;-76
2021/12/05 14:50:30;;;;;;;4.10;3.70;;;8.20;94.50;;;;;;5076688;28;20547;-76
2021/12/05 14:53:05;;;;;;;5.38;3.30;;;8.20;94.50;;;;;;5076330;28;20429;-77
2021/12/05 14:55:33;;;;;;;6.15;3.40;;;8.10;94.50;;;;;;5087723;28;20063;-81
2021/12/05 14:58:03;;;;;;;4.20;3.80;;;8.10;94.50;;;;;;5071473;28;20535;-80
2021/12/05 15:00:41;;;;;;;4.30;2.90;;;8.10;94.40;;;;;;5077920;28;20044;-78
2021/12/05 15:03:14;;;;;;;5.28;3.00;;;8.00;94.70;;;;;;5087906;28;20055;-77
2021/12/05 15:05:42;;;;;;;5.82;3.28;;;8.00;94.70;;;;;;5098029;28;20028;-76
2021/12/05 15:08:14;;;;;;;7.20;3.90;;;8.00;94.80;;;;;;5076415;28;20035;-77
2021/12/05 15:10:42;;;;;;;6.07;3.38;;;8.00;94.80;;;;;;5083870;28;20046;-77
2021/12/05 15:13:11;;;;;;;3.55;2.92;;;7.90;94.80;;;;;;5088787;28;20033;-77
2021/12/05 15:15:38;;;;;;;6.32;3.92;;;7.90;94.70;;;;;;5082736;28;20024;-77
2021/12/05 15:18:05;;;;;;;5.75;3.92;;;8.00;95.00;;;;;;5086548;28;20055;-76
2021/12/05 15:20:33;;;;;;;8.00;3.58;;;8.00;95.10;;;;;;5085022;28;20119;-77
2021/12/05 15:23:03;;;;;;;7.57;3.88;;;8.00;94.90;;;;;;5078154;28;20502;-78
2021/12/05 15:25:32;;;;;;;4.47;3.20;;;7.90;95.30;;;;;;5082525;28;20056;-78
2021/12/05 15:27:59;;;;;;;7.85;3.85;;;7.90;95.20;;;;;;5087263;28;20027;-78
2021/12/05 15:30:35;;;;;;;4.95;3.60;;;7.90;95.30;;;;;;5084142;28;20067;-78
2021/12/05 15:33:07;;;;;;;7.05;3.17;;;7.90;95.30;;;;;;5078925;28;20545;-78
2021/12/05 15:35:34;;;;;;;4.97;3.05;;;7.80;95.30;;;;;;5081617;28;20033;-78
2021/12/05 15:38:02;;;;;;;8.45;3.58;;;7.80;95.40;;;;;;5086058;28;20056;-78
2021/12/05 15:40:31;;;;;;;4.97;3.38;;;7.90;95.30;;;;;;5083643;28;20032;-78
2021/12/05 15:43:03;;;;;;;6.70;3.65;;;7.80;95.20;;;;;;5074333;28;20497;-78
2021/12/05 15:45:29;;;;;;;6.25;3.55;;;7.70;95.40;;;;;;5078258;28;20115;-77
2021/12/05 15:47:55;;;;;;;8.48;3.65;;;7.70;95.40;;;;;;5079030;28;20458;-77
2021/12/05 15:50:23;;;;;;;6.20;3.40;;;7.70;95.60;;;;;;5085657;28;20031;-78
2021/12/05 15:52:51;;;;;;;5.20;3.85;;;7.80;95.60;;;;;;5077340;28;20394;-78
2021/12/05 15:55:26;;;;;;;7.65;4.20;;;7.80;95.50;;;;;;5073933;28;20020;-76
2021/12/05 15:58:08;;;;;;;7.65;4.32;;;7.70;95.50;;;;;;5084629;28;20043;-76
2021/12/05 16:00:43;;;;;;;6.13;3.97;;;7.70;95.70;;;;;;5099474;28;20539;-77
2021/12/05 16:03:12;;;;;;;11.32;5.00;;;7.60;95.80;;;;;;5079170;28;20411;-77
2021/12/05 16:05:41;;;;;;;8.30;4.45;;;7.70;95.70;;;;;;5075717;28;20115;-77
2021/12/05 16:08:15;;;;;;;8.98;4.72;;;7.70;95.80;;;;;;5056989;28;20036;-78
2021/12/05 16:10:48;;;;;;;9.60;5.55;;;7.50;95.80;;;;;;5075418;28;20155;-83
2021/12/05 16:13:15;;;;;;;9.13;4.45;;;7.40;96.10;;;;;;5075897;28;20032;-77
2021/12/05 16:15:49;;;;;;;7.75;4.97;;;7.40;96.40;;;;;;5075114;28;20062;-82
2021/12/05 16:18:16;;;;;;;9.88;4.55;;;7.50;96.20;;;;;;5074706;28;20046;-77
2021/12/05 16:20:50;;;;;;;8.55;4.90;;;7.40;96.10;;;;;;5074865;28;20052;-79
2021/12/05 16:23:16;;;;;;;10.27;6.00;;;7.40;96.10;;;;;;5073569;28;20023;-82
2021/12/05 16:26:10;;;;;;;9.77;5.75;;;7.40;96.10;;;;;;5072346;28;20513;-79
2021/12/05 16:29:07;;;;;;;9.95;5.53;;;7.30;96.20;;;;;;5066151;28;20058;-76
2021/12/05 16:31:43;;;;;;;9.30;5.68;;;7.30;96.40;;;;;;5057162;28;20024;-76
2021/12/05 16:34:11;;;;;;;11.68;6.97;;;7.30;96.50;;;;;;5074455;28;20032;-79
2021/12/05 16:36:56;;;;;;;13.32;8.25;;;7.20;96.60;;;;;;5074088;28;20028;-78
2021/12/05 16:39:34;;;;;;;17.77;8.50;;;7.20;96.60;;;;;;5074700;28;20020;-78
2021/12/05 16:42:13;;;;;;;16.95;8.43;;;7.20;96.70;;;;;;5074677;28;20078;-79
2021/12/05 16:44:40;;;;;;;12.82;6.97;;;7.20;96.70;;;;;;5074922;28;20050;-79
2021/12/05 16:47:14;;;;;;;11.80;7.82;;;7.20;96.70;;;;;;5073911;28;20021;-79
2021/12/05 16:49:44;;;;;;;13.43;7.13;;;7.20;96.70;;;;;;5077934;28;20025;-80
2021/12/05 16:52:19;;;;;;;10.98;6.78;;;7.30;96.60;;;;;;5072607;28;20024;-76
2021/12/05 16:54:51;;;;;;;11.50;7.03;;;7.20;96.60;;;;;;5075405;28;20115;-80
2021/12/05 16:57:21;;;;;;;13.75;8.15;;;7.20;96.60;;;;;;5090682;28;20040;-76
2021/12/05 16:59:59;;;;;;;8.38;6.03;;;7.20;96.60;;;;;;5075034;28;20047;-76
2021/12/05 17:02:29;;;;;;;12.38;6.93;;;7.20;96.60;;;;;;5074303;28;20040;-77
2021/12/05 17:05:07;;;;;;;10.32;6.47;;;7.30;96.60;;;;;;5074106;28;20107;-80
2021/12/05 17:10:49;;;;;;;13.43;7.80;;;7.20;96.50;;;;;;5071561;28;20125;-77
2021/12/05 17:13:23;;;;;;;11.43;7.47;;;7.20;96.60;;;;;;5070967;28;20426;-78
2021/12/05 17:15:54;;;;;;;13.13;8.10;;;7.20;96.70;;;;;;5074348;28;20024;-80
2021/12/05 17:18:22;;;;;;;13.65;8.40;;;7.20;96.70;;;;;;5073260;28;20475;-81
2021/12/05 17:20:53;;;;;;;17.60;9.73;;;7.20;96.70;;;;;;5073437;28;20040;-79
2021/12/05 17:23:27;;;;;;;15.82;9.65;;;7.20;96.50;;;;;;5073474;28;20471;-79
2021/12/05 17:25:55;;;;;;;12.55;8.75;;;7.20;96.60;;;;;;5073862;28;20028;-78
2021/12/05 17:28:40;;;;;;;15.18;9.55;;;7.20;96.60;;;;;;5074067;28;20075;-77
2021/12/05 17:31:12;;;;;;;28.65;15.02;;;7.30;96.60;;;;;;5073487;28;20103;-79
2021/12/05 17:33:42;;;;;;;28.55;15.82;;;7.20;96.50;;;;;;5073563;28;20036;-80
2021/12/05 17:36:16;;;;;;;20.42;12.88;;;7.30;96.50;;;;;;5073743;28;20031;-79
2021/12/05 17:38:41;;;;;;;18.48;12.10;;;7.20;96.40;;;;;;5071734;28;20051;-83
2021/12/05 17:41:07;;;;;;;17.25;11.40;;;7.30;96.40;;;;;;5073288;28;20069;-83
2021/12/05 17:43:33;;;;;;;17.80;11.13;;;7.30;96.50;;;;;;5073997;28;20028;-79
2021/12/05 17:46:01;;;;;;;19.20;11.10;;;7.20;96.40;;;;;;5073552;28;20095;-79
2021/12/05 17:48:28;;;;;;;15.88;10.25;;;7.30;96.50;;;;;;5073716;28;20054;-79
2021/12/05 17:50:56;;;;;;;16.20;11.45;;;7.20;96.40;;;;;;5072260;28;20102;-82
2021/12/05 17:53:28;;;;;;;18.83;11.63;;;7.20;96.50;;;;;;5086676;28;20029;-79
2021/12/05 17:56:00;;;;;;;19.40;11.30;;;7.20;96.60;;;;;;5095447;28;20028;-79
2021/12/05 17:59:29;;;;;;;19.77;12.73;;;7.20;96.60;;;;;;5080197;28;20279;-79
2021/12/05 18:04:06;;;;;;;19.42;12.38;;;7.20;96.50;;;;;;5088230;28;20051;-82
2021/12/05 18:06:33;;;;;;;20.92;13.65;;;7.30;96.50;;;;;;5091916;28;20028;-82
2021/12/05 18:08:59;;;;;;;18.80;12.30;;;7.30;96.50;;;;;;5084751;28;20095;-81
2021/12/05 18:11:25;;;;;;;19.58;12.45;;;7.20;96.40;;;;;;5082453;28;20035;-83
2021/12/05 18:13:55;;;;;;;18.52;12.32;;;7.30;96.50;;;;;;5084488;28;20484;-76
2021/12/05 18:16:25;;;;;;;18.85;12.48;;;7.30;96.60;;;;;;5090497;28;20023;-82
2021/12/05 18:18:56;;;;;;;17.60;12.63;;;7.30;96.60;;;;;;5082456;28;20032;-79
2021/12/05 18:21:25;;;;;;;19.55;13.40;;;7.30;96.50;;;;;;5090873;28;20035;-78
2021/12/05 18:23:52;;;;;;;19.92;12.70;;;7.30;96.40;;;;;;5077461;28;20025;-78
2021/12/05 18:26:19;;;;;;;19.50;12.13;;;7.30;96.40;;;;;;5075272;28;20467;-77
2021/12/05 18:28:49;;;;;;;18.73;12.52;;;7.30;96.40;;;;;;5083430;28;20027;-79
2021/12/05 18:31:19;;;;;;;24.60;14.20;;;7.30;96.40;;;;;;5086304;28;20039;-79
2021/12/05 18:33:49;;;;;;;21.35;13.35;;;7.30;96.10;;;;;;5083930;28;20024;-77
2021/12/05 18:36:15;;;;;;;16.65;12.25;;;7.30;96.30;;;;;;5091328;28;20032;-77
2021/12/05 18:38:41;;;;;;;18.60;12.75;;;7.30;96.30;;;;;;5074842;28;20032;-77
2021/12/05 18:41:10;;;;;;;20.23;12.23;;;7.20;96.20;;;;;;5085490;28;20028;-78
2021/12/05 18:43:39;;;;;;;18.55;12.50;;;7.10;96.50;;;;;;5078315;28;20467;-77
2021/12/05 18:46:07;;;;;;;19.90;12.15;;;7.10;96.60;;;;;;5090555;28;20039;-80
2021/12/05 18:48:33;;;;;;;17.10;11.85;;;7.20;96.60;;;;;;5089564;28;20048;-75
2021/12/05 18:50:59;;;;;;;23.27;13.30;;;7.30;96.40;;;;;;5094028;28;20031;-77
2021/12/05 18:53:25;;;;;;;16.83;11.90;;;7.40;96.20;;;;;;5087935;28;20029;-78
2021/12/05 18:55:52;;;;;;;19.60;12.95;;;7.40;96.20;;;;;;5084813;28;20024;-76
2021/12/05 18:58:22;;;;;;;19.02;12.13;;;7.40;96.10;;;;;;5088261;28;20025;-77